createdAt,value
2018-07-11T00:01:10.408Z,63.09
2018-07-11T00:03:46.356Z,62.84
2018-07-11T00:06:19.951Z,62.51
2018-07-11T00:08:54.309Z,63.22
2018-07-11T00:11:26.915Z,63.79
2018-07-11T00:14:00.998Z,64.01
2018-07-11T00:16:34.971Z,64.50
2018-07-11T00:19:11.697Z,64.46
2018-07-11T00:21:46.781Z,64.42
2018-07-11T00:24:20.712Z,63.99
2018-07-11T00:26:53.511Z,64.88
2018-07-11T00:29:26.697Z,64.69
2018-07-11T00:32:25.362Z,65.22
2018-07-11T00:35:16.973Z,64.42
2018-07-11T00:47:27.218Z,63.77
2018-07-11T00:50:05.176Z,64.67
2018-07-11T00:52:41.924Z,64.11
2018-07-11T00:55:19.887Z,64.09
2018-07-11T00:58:03.350Z,63.99
2018-07-11T01:00:42.494Z,63.35
2018-07-11T01:03:20.526Z,63.75
2018-07-11T01:06:02.112Z,64.52
2018-07-11T01:08:42.037Z,65.47
2018-07-11T01:11:25.592Z,64.94
2018-07-11T01:14:05.654Z,65.72
2018-07-11T01:16:43.048Z,65.55
2018-07-11T01:19:23.273Z,66.45
2018-07-11T01:22:09.369Z,66.01
2018-07-11T01:24:53.837Z,65.74
2018-07-11T01:27:31.852Z,65.34
2018-07-11T01:30:11.793Z,65.14
2018-07-11T01:32:55.136Z,64.23
2018-07-11T01:35:33.926Z,64.17
2018-07-11T01:38:09.444Z,65.06
2018-07-11T01:40:44.903Z,63.98
2018-07-11T01:43:24.571Z,64.41
2018-07-11T01:46:02.862Z,64.71
2018-07-11T01:48:39.369Z,64.97
2018-07-11T01:51:21.002Z,65.22
2018-07-11T01:54:02.383Z,63.94
2018-07-11T01:56:38.603Z,64.07
2018-07-11T01:59:13.886Z,64.35
2018-07-11T02:01:53.738Z,64.54
2018-07-11T02:04:33.097Z,64.66
2018-07-11T02:07:13.981Z,64.22
2018-07-11T02:09:52.761Z,64.08
2018-07-11T02:12:39.204Z,63.93
2018-07-11T02:15:15.130Z,64.46
2018-07-11T02:17:55.760Z,65.30
2018-07-11T02:20:34.888Z,65.58
2018-07-11T02:23:12.833Z,66.21
2018-07-11T02:25:53.469Z,66.20
2018-07-11T02:28:35.448Z,66.08
2018-07-11T02:31:18.687Z,65.69
2018-07-11T02:34:05.019Z,65.51
2018-07-11T02:36:41.940Z,65.31
2018-07-11T02:39:16.684Z,65.46
2018-07-11T02:42:01.324Z,65.50
2018-07-11T02:47:28.541Z,65.60
2018-07-11T02:50:02.777Z,65.71
2018-07-11T02:52:46.053Z,65.30
2018-07-11T02:55:20.716Z,65.86
2018-07-11T02:57:55.938Z,65.82
2018-07-11T03:00:32.916Z,65.63
2018-07-11T03:03:08.846Z,65.58
2018-07-11T03:05:45.330Z,65.18
2018-07-11T03:08:25.074Z,65.33
2018-07-11T03:11:05.873Z,65.36
2018-07-11T03:13:49.813Z,66.01
2018-07-11T03:16:28.069Z,66.23
2018-07-11T03:19:05.077Z,66.02
2018-07-11T03:21:34.717Z,66.49
2018-07-11T03:24:10.851Z,66.35
2018-07-11T03:26:51.170Z,66.53
2018-07-11T03:29:39.147Z,66.22
2018-07-11T03:32:22.168Z,65.83
2018-07-11T03:37:40.263Z,65.62
2018-07-11T03:40:18.301Z,66.20
2018-07-11T03:42:51.947Z,65.75
2018-07-11T03:45:30.374Z,66.12
2018-07-11T03:48:05.655Z,66.59
2018-07-11T03:53:26.415Z,66.07
2018-07-11T03:56:04.613Z,66.02
2018-07-11T03:58:46.750Z,65.26
2018-07-11T04:01:22.003Z,65.46
2018-07-11T04:04:02.893Z,65.92
2018-07-11T04:06:42.642Z,66.07
2018-07-11T04:09:20.060Z,66.17
2018-07-11T04:12:02.856Z,66.34
2018-07-11T04:14:37.624Z,66.44
2018-07-11T04:17:19.919Z,65.90
2018-07-11T04:19:53.529Z,66.15
2018-07-11T04:22:35.033Z,65.75
2018-07-11T04:25:09.464Z,65.51
2018-07-11T04:27:43.757Z,65.86
2018-07-11T04:33:14.248Z,66.11
2018-07-11T04:41:17.892Z,64.98
2018-07-11T04:43:53.685Z,69.67
2018-07-11T04:46:35.926Z,67.98
2018-07-11T04:49:11.684Z,67.46
2018-07-11T04:54:36.044Z,66.40
2018-07-11T04:57:19.357Z,66.60
2018-07-11T04:59:53.662Z,67.03
2018-07-11T05:02:29.991Z,66.79
2018-07-11T05:05:06.751Z,66.03
2018-07-11T05:07:54.237Z,66.08
2018-07-11T05:10:33.787Z,65.38
2018-07-11T05:13:18.310Z,65.46
2018-07-11T05:15:55.518Z,66.05
2018-07-11T05:18:35.152Z,65.75
2018-07-11T05:21:12.109Z,65.90
2018-07-11T05:23:54.090Z,65.99
2018-07-11T05:26:31.247Z,65.35
2018-07-11T05:29:09.634Z,66.12
2018-07-11T05:31:48.084Z,65.84
2018-07-11T05:34:24.227Z,65.48
2018-07-11T05:37:04.681Z,64.91
2018-07-11T05:39:41.127Z,65.54
2018-07-11T05:42:17.188Z,65.20
2018-07-11T05:44:52.889Z,65.19
2018-07-11T05:47:26.903Z,63.87
2018-07-11T05:50:07.027Z,62.89
2018-07-11T05:52:47.787Z,63.15
2018-07-11T05:55:29.769Z,63.22
2018-07-11T05:58:09.258Z,63.80
2018-07-11T06:00:46.861Z,63.73
2018-07-11T06:03:28.848Z,64.00
2018-07-11T06:06:04.908Z,63.91
2018-07-11T06:08:50.208Z,63.51
2018-07-11T06:11:28.504Z,64.68
2018-07-11T06:14:07.525Z,63.97
2018-07-11T06:16:48.309Z,64.77
2018-07-11T06:19:25.377Z,63.63
2018-07-11T06:22:04.752Z,63.75
2018-07-11T06:24:40.878Z,63.59
2018-07-11T06:27:20.210Z,63.93
2018-07-11T06:29:59.460Z,63.84
2018-07-11T06:32:57.402Z,64.39
2018-07-11T06:35:40.549Z,64.02
2018-07-11T06:38:22.899Z,63.77
2018-07-11T06:41:01.092Z,63.03
2018-07-11T06:43:45.330Z,61.47
2018-07-11T06:46:23.535Z,62.53
2018-07-11T06:49:00.885Z,61.89
2018-07-11T06:51:40.270Z,62.64
2018-07-11T06:54:15.706Z,62.01
2018-07-11T06:56:53.260Z,62.17
2018-07-11T06:59:39.067Z,62.50
2018-07-11T07:02:18.767Z,62.70
2018-07-11T07:04:58.279Z,63.43
2018-07-11T07:07:37.919Z,63.93
2018-07-11T07:10:18.711Z,63.56
2018-07-11T07:12:59.608Z,63.71
2018-07-11T07:15:40.101Z,63.70
2018-07-11T07:18:15.007Z,63.25
2018-07-11T07:20:56.594Z,63.00
2018-07-11T07:23:37.690Z,60.20
2018-07-11T07:26:12.048Z,58.96
2018-07-11T07:28:46.781Z,59.24
2018-07-11T07:31:25.074Z,60.13
2018-07-11T07:34:05.424Z,59.87
2018-07-11T07:36:46.844Z,60.97
2018-07-11T07:39:29.933Z,61.88
2018-07-11T07:42:16.298Z,60.48
2018-07-11T07:44:52.781Z,60.00
2018-07-11T07:47:30.030Z,60.44
2018-07-11T07:50:06.219Z,60.15
2018-07-11T07:52:43.250Z,59.57
2018-07-11T07:55:24.782Z,57.63
2018-07-11T07:58:05.650Z,57.63
2018-07-11T08:00:44.678Z,59.02
2018-07-11T08:03:24.086Z,57.75
2018-07-11T08:05:59.127Z,57.77
2018-07-11T08:08:37.721Z,56.82
2018-07-11T08:11:18.423Z,59.15
2018-07-11T08:13:57.043Z,58.87
2018-07-11T08:16:32.875Z,58.14
2018-07-11T08:19:12.366Z,57.99
2018-07-11T08:21:50.298Z,59.00
2018-07-11T08:24:34.024Z,57.86
2018-07-11T08:27:20.232Z,58.29
2018-07-11T08:30:08.911Z,57.39
2018-07-11T08:32:57.165Z,56.90
2018-07-11T08:36:19.977Z,57.72
2018-07-11T08:38:59.977Z,57.30
2018-07-11T08:42:44.728Z,58.35
2018-07-11T08:45:27.656Z,59.82
2018-07-11T08:48:20.915Z,59.21
2018-07-11T08:51:04.513Z,59.25
2018-07-11T08:54:00.909Z,59.64
2018-07-11T08:56:46.779Z,58.25
2018-07-11T09:02:33.844Z,58.46
2018-07-11T09:05:24.345Z,60.56
2018-07-11T09:10:15.571Z,59.91
2018-07-11T09:13:05.762Z,60.20
2018-07-11T09:15:54.758Z,58.17
2018-07-11T09:20:41.336Z,59.98
2018-07-11T09:25:34.532Z,56.79
2018-07-11T09:28:10.737Z,58.90
2018-07-11T09:30:50.798Z,56.06
2018-07-11T09:33:30.888Z,56.31
2018-07-11T09:36:11.907Z,55.25
2018-07-11T09:38:47.722Z,56.05
2018-07-11T09:41:32.027Z,54.01
2018-07-11T09:44:08.604Z,52.85
2018-07-11T09:46:53.645Z,55.07
2018-07-11T09:49:37.258Z,53.10
2018-07-11T09:52:20.291Z,52.85
2018-07-11T09:55:00.244Z,52.83
2018-07-11T09:57:44.778Z,52.73
2018-07-11T10:00:28.550Z,50.86
2018-07-11T10:03:11.936Z,50.69
2018-07-11T10:05:49.285Z,53.01
2018-07-11T10:08:25.205Z,51.23
2018-07-11T10:11:08.540Z,47.75
2018-07-11T10:13:51.832Z,48.90
2018-07-11T10:16:35.995Z,47.98
2018-07-11T10:19:14.994Z,47.70
2018-07-11T10:21:55.402Z,48.87
2018-07-11T10:24:32.294Z,45.91
2018-07-11T10:27:12.151Z,47.00
2018-07-11T10:29:55.024Z,50.39
2018-07-11T10:32:34.840Z,52.51
2018-07-11T10:35:24.936Z,53.58
2018-07-11T10:38:03.619Z,56.13
2018-07-11T10:40:49.971Z,57.31
2018-07-11T10:43:28.061Z,56.52
2018-07-11T10:46:08.243Z,57.88
2018-07-11T10:48:49.825Z,57.00
2018-07-11T10:51:31.502Z,57.10
2018-07-11T10:54:08.329Z,57.21
2018-07-11T10:56:46.731Z,58.24
2018-07-11T11:02:19.398Z,57.22
2018-07-11T11:07:48.024Z,57.28
2018-07-11T11:13:13.540Z,57.97
2018-07-11T11:15:51.753Z,57.51
2018-07-11T11:18:31.135Z,56.05
2018-07-11T11:21:09.910Z,56.64
2018-07-11T11:23:46.051Z,57.31
2018-07-11T11:29:04.650Z,55.87
2018-07-11T11:31:50.396Z,54.61
2018-07-11T11:34:33.077Z,55.11
2018-07-11T11:37:10.495Z,55.72
2018-07-11T11:39:52.224Z,56.45
2018-07-11T11:42:26.142Z,56.21
2018-07-11T11:45:09.214Z,55.51
2018-07-11T11:47:59.389Z,56.19
2018-07-11T11:50:41.644Z,56.13
2018-07-11T11:53:22.630Z,53.29
2018-07-11T11:58:50.461Z,51.95
2018-07-11T12:01:32.131Z,49.44
2018-07-11T12:04:09.147Z,51.09
2018-07-11T12:06:53.401Z,51.61
2018-07-11T12:09:31.627Z,50.50
2018-07-11T12:12:09.444Z,48.13
2018-07-11T12:14:49.404Z,49.75
2018-07-11T12:17:32.192Z,49.33
2018-07-11T12:20:09.765Z,50.41
2018-07-11T12:22:45.004Z,47.44
2018-07-11T12:25:27.987Z,49.26
2018-07-11T12:28:07.279Z,51.54
2018-07-11T12:30:52.986Z,47.31
2018-07-11T12:33:34.373Z,49.60
2018-07-11T12:36:19.097Z,51.49
2018-07-11T12:39:08.686Z,50.37
2018-07-11T12:41:49.304Z,51.13
2018-07-11T12:44:35.323Z,51.88
2018-07-11T12:47:17.962Z,51.77
2018-07-11T12:49:58.493Z,52.61
2018-07-11T12:52:39.450Z,50.25
2018-07-11T12:55:21.252Z,51.35
2018-07-11T13:00:44.790Z,49.76
2018-07-11T13:03:24.314Z,49.95
2018-07-11T13:06:02.613Z,49.55
2018-07-11T13:08:38.701Z,48.12
2018-07-11T13:14:09.134Z,51.05
2018-07-11T13:16:52.110Z,53.46
2018-07-11T13:19:33.345Z,52.86
2018-07-11T13:22:13.445Z,50.80
2018-07-11T13:38:46.625Z,56.48
2018-07-11T13:41:30.133Z,56.71
2018-07-11T13:44:17.682Z,57.56
2018-07-11T13:46:54.126Z,59.43
2018-07-11T13:49:34.856Z,59.37
2018-07-11T13:52:14.542Z,59.33
2018-07-11T13:54:58.980Z,60.16
2018-07-11T13:57:39.508Z,60.65
2018-07-11T14:00:25.969Z,60.92
2018-07-11T14:03:03.244Z,60.50
2018-07-11T14:05:40.230Z,59.19
2018-07-11T14:08:26.643Z,60.35
2018-07-11T14:11:01.492Z,62.27
2018-07-11T14:13:44.925Z,61.14
2018-07-11T14:16:22.211Z,61.10
2018-07-11T14:19:05.060Z,60.53
2018-07-11T14:21:42.624Z,60.06
2018-07-11T14:24:20.527Z,59.58
2018-07-11T14:29:43.788Z,60.24
2018-07-11T14:32:32.445Z,61.62
2018-07-11T14:37:58.955Z,61.26
2018-07-11T14:40:42.262Z,60.70
2018-07-11T14:43:25.319Z,60.35
2018-07-11T14:46:06.485Z,59.97
2018-07-11T14:48:49.512Z,61.41
2018-07-11T14:51:34.628Z,61.17
2018-07-11T14:54:15.430Z,60.06
2018-07-11T14:56:51.858Z,59.97
2018-07-11T15:02:17.742Z,60.38
2018-07-11T15:04:58.166Z,60.56
2018-07-11T15:07:44.413Z,60.79
2018-07-11T15:10:23.952Z,61.18
2018-07-11T15:13:05.118Z,60.97
2018-07-11T15:15:43.855Z,61.21
2018-07-11T15:18:28.050Z,60.38
2018-07-11T15:21:04.723Z,61.26
2018-07-11T15:23:45.507Z,60.97
2018-07-11T15:26:27.092Z,60.80
2018-07-11T15:29:06.931Z,61.51
2018-07-11T15:31:46.644Z,60.86
2018-07-11T15:34:23.996Z,61.21
2018-07-11T15:37:06.008Z,62.70
2018-07-11T15:39:46.644Z,62.03
2018-07-11T15:42:31.348Z,61.96
2018-07-11T15:45:09.535Z,62.40
2018-07-11T15:47:51.333Z,63.36
2018-07-11T15:50:29.838Z,63.12
2018-07-11T15:53:17.931Z,62.57
2018-07-11T15:56:03.327Z,62.30
2018-07-11T15:58:47.891Z,62.87
2018-07-11T16:01:29.768Z,62.54
2018-07-11T16:04:09.747Z,62.87
2018-07-11T16:06:54.229Z,62.08
2018-07-11T16:09:37.818Z,62.94
2018-07-11T16:12:14.721Z,62.21
2018-07-11T16:14:56.136Z,62.34
2018-07-11T16:17:43.140Z,63.56
2018-07-11T16:20:24.891Z,64.20
2018-07-11T16:23:02.768Z,63.95
2018-07-11T16:25:42.253Z,64.11
2018-07-11T16:28:23.220Z,64.01
2018-07-11T16:33:46.843Z,62.32
2018-07-11T16:36:35.811Z,62.90
2018-07-11T16:41:53.831Z,63.29
2018-07-11T16:44:41.799Z,63.52
2018-07-11T16:47:17.737Z,63.33
2018-07-11T16:49:55.716Z,62.21
2018-07-11T16:52:34.176Z,62.10
2018-07-11T16:55:10.932Z,62.55
2018-07-11T16:57:57.080Z,63.29
2018-07-11T17:00:39.055Z,63.31
2018-07-11T17:03:17.440Z,63.67
2018-07-11T17:06:00.528Z,63.34
2018-07-11T17:08:43.667Z,62.95
2018-07-11T17:11:25.644Z,62.68
2018-07-11T17:16:56.636Z,63.39
2018-07-11T17:19:38.641Z,62.98
2018-07-11T17:22:19.804Z,64.19
2018-07-11T17:25:02.740Z,63.69
2018-07-11T17:27:42.651Z,64.10
2018-07-11T17:30:18.635Z,64.00
2018-07-11T17:35:48.502Z,62.78
2018-07-11T17:38:33.132Z,62.42
2018-07-11T17:41:15.083Z,63.77
2018-07-11T17:43:56.936Z,64.47
2018-07-11T17:46:38.892Z,63.67
2018-07-11T17:49:27.790Z,64.87
2018-07-11T17:52:18.722Z,65.48
2018-07-11T17:55:23.075Z,66.06
2018-07-11T17:58:03.557Z,64.89
2018-07-11T18:00:56.814Z,65.82
2018-07-11T18:03:45.807Z,65.88
2018-07-11T18:06:34.102Z,64.80
2018-07-11T18:09:25.933Z,65.10
2018-07-11T18:12:11.273Z,64.71
2018-07-11T18:14:57.033Z,65.06
2018-07-11T18:17:48.773Z,64.71
2018-07-11T18:20:43.311Z,64.14
2018-07-11T18:23:25.178Z,64.31
2018-07-11T18:29:04.054Z,64.54
2018-07-11T18:31:58.417Z,64.01
2018-07-11T18:35:24.336Z,64.53
2018-07-11T18:38:10.348Z,64.68
2018-07-11T18:41:08.442Z,64.02
2018-07-11T18:44:02.357Z,65.18
2018-07-11T18:46:53.831Z,64.11
2018-07-11T18:49:39.492Z,63.79
2018-07-11T18:52:23.579Z,63.90
2018-07-11T18:55:02.866Z,64.58
2018-07-11T18:58:02.114Z,63.74
2018-07-11T19:00:49.782Z,64.18
2018-07-11T19:03:38.916Z,63.31
2018-07-11T19:06:55.216Z,63.62
2018-07-11T19:09:51.245Z,64.66
2018-07-11T19:12:38.508Z,64.50
2018-07-11T19:15:22.608Z,64.19
2018-07-11T19:18:14.501Z,64.25
2018-07-11T19:21:17.920Z,64.07
2018-07-11T19:24:09.461Z,64.96
2018-07-11T19:26:56.694Z,64.52
2018-07-11T19:30:21.910Z,64.25
2018-07-11T19:33:38.211Z,64.75
2018-07-11T19:42:29.941Z,66.08
2018-07-11T19:45:14.585Z,67.56
2018-07-11T19:48:01.501Z,67.45
2018-07-11T19:50:50.358Z,66.39
2018-07-11T19:53:43.682Z,66.81
2018-07-11T19:56:29.943Z,66.92
2018-07-11T19:59:06.466Z,65.47
2018-07-11T20:01:42.788Z,64.83
2018-07-11T20:04:18.385Z,65.00
2018-07-11T20:06:53.880Z,64.29
2018-07-11T20:09:32.090Z,63.46
2018-07-11T20:12:10.331Z,63.95
2018-07-11T20:14:47.478Z,64.92
2018-07-11T20:17:24.888Z,64.53
2018-07-11T20:20:01.215Z,64.08
2018-07-11T20:22:40.136Z,64.79
2018-07-11T20:25:27.257Z,65.32
2018-07-11T20:28:02.656Z,64.52
2018-07-11T20:30:47.845Z,64.54
2018-07-11T20:33:35.589Z,65.26
2018-07-11T20:36:11.927Z,65.42
2018-07-11T20:38:54.127Z,65.60
2018-07-11T20:41:36.228Z,65.29
2018-07-11T20:44:14.156Z,65.47
2018-07-11T20:46:58.035Z,64.59
2018-07-11T20:49:43.171Z,65.91
2018-07-11T20:52:25.441Z,65.27
2018-07-11T20:55:10.392Z,65.13
2018-07-11T20:57:50.032Z,65.92
2018-07-11T21:00:34.320Z,65.44
2018-07-11T21:03:20.371Z,65.74
2018-07-11T21:07:19.800Z,65.91
2018-07-11T21:12:16.494Z,67.34
2018-07-11T21:15:18.958Z,68.90
2018-07-11T21:18:11.861Z,68.84
2018-07-11T21:20:54.765Z,68.94
2018-07-11T21:23:30.185Z,68.22
2018-07-11T21:26:13.128Z,67.71
2018-07-11T21:28:56.044Z,68.06
2018-07-11T21:31:37.927Z,67.45
2018-07-11T21:34:19.263Z,66.76
2018-07-11T21:36:58.092Z,66.28
2018-07-11T21:39:39.942Z,66.49
2018-07-11T21:42:24.708Z,66.99
2018-07-11T21:45:03.908Z,67.17
2018-07-11T21:47:46.989Z,67.27
2018-07-11T21:50:31.856Z,66.14
2018-07-11T21:53:11.458Z,66.90
2018-07-11T21:55:57.328Z,67.11
2018-07-11T21:58:36.240Z,66.30
2018-07-11T22:01:13.855Z,65.73
2018-07-11T22:03:55.892Z,65.61
2018-07-11T22:06:34.609Z,66.24
2018-07-11T22:09:12.349Z,66.75
2018-07-11T22:11:53.598Z,66.16
2018-07-11T22:14:42.653Z,66.61
2018-07-11T22:17:33.559Z,66.05
2018-07-11T22:20:07.270Z,66.37
2018-07-11T22:22:44.825Z,66.40
2018-07-11T22:25:20.821Z,65.62
2018-07-11T22:27:55.287Z,66.12
2018-07-11T22:30:28.420Z,65.92
2018-07-11T22:33:04.512Z,66.88
2018-07-11T22:35:37.126Z,65.86
2018-07-11T22:38:12.067Z,65.89
2018-07-11T22:40:51.248Z,65.74
2018-07-11T22:43:26.567Z,65.04
2018-07-11T22:45:59.606Z,64.70
2018-07-11T22:51:07.707Z,64.63
2018-07-11T22:53:40.577Z,65.33
2018-07-11T22:56:11.733Z,65.09
2018-07-11T22:58:45.104Z,65.22
2018-07-11T23:01:21.477Z,65.70
2018-07-11T23:03:55.695Z,65.93
2018-07-11T23:09:07.211Z,65.89
2018-07-11T23:11:40.430Z,65.86
2018-07-11T23:14:18.836Z,66.13
2018-07-11T23:16:53.942Z,65.98
2018-07-11T23:19:25.220Z,66.69
2018-07-11T23:22:01.450Z,66.05
2018-07-11T23:27:14.701Z,65.36
2018-07-11T23:29:46.735Z,65.07
2018-07-11T23:32:18.335Z,64.32
2018-07-11T23:34:50.816Z,65.15
2018-07-11T23:37:21.886Z,65.58
2018-07-11T23:39:57.364Z,65.75
2018-07-11T23:42:31.921Z,65.58
2018-07-11T23:45:09.065Z,65.72
2018-07-11T23:47:40.347Z,65.72
2018-07-11T23:50:11.453Z,65.50
2018-07-11T23:52:44.513Z,64.56
2018-07-11T23:55:15.820Z,65.44
2018-07-11T23:57:49.028Z,65.30
